3I2

Mason County Airport

Point Pleasant, West Virginia, USA
METAR K3I2 181020Z AUTO 00000KT 10SM CLR 01/01 A3051 RMK AO2 T00100005 PNO
Observed Flight Rules
Oct-18 @ 10:20 UTC (23 hours ago) Visual Flight Rules
Visibility Clouds
10 miles
  • Clear skies
Temperatures Readings
Current 1°C / 34°F
Dewpoint 1°C / 34°F
Humidity 100%
Altimeter 30.51" Hg
Pressure 1033 hPa
Elevation 196
METAR K3I2 181020Z AUTO 00000KT 10SM CLR 01/01 A3051 RMK AO2 T00100005 PNO
Observed Flight Rules
Oct-18 @ 10:20 UTC
(23 hours ago)
VFR
Clouds
  • Clear skies
Temperature Dewpoint
1°C / 34°F 1°C / 34°F
Humidity Altimeter Pressure
100% 30.51" Hg 1033 hPa